createdAt,value
2023-05-01T00:02:12.121Z,98264.09
2023-05-01T00:04:44.024Z,98268.22
2023-05-01T00:07:16.706Z,98259.00
2023-05-01T00:09:49.113Z,98263.72
2023-05-01T00:12:21.642Z,98265.03
2023-05-01T00:14:56.735Z,98260.84
2023-05-01T00:17:31.386Z,98257.38
2023-05-01T00:20:05.187Z,98254.81
2023-05-01T00:22:38.210Z,98258.22
2023-05-01T00:25:10.741Z,98247.00
2023-05-01T00:27:43.715Z,98245.09
2023-05-01T00:30:16.151Z,98242.50
2023-05-01T00:32:49.127Z,98241.66
2023-05-01T00:35:21.013Z,98245.56
2023-05-01T00:37:54.198Z,98248.91
2023-05-01T00:40:26.173Z,98242.25
2023-05-01T00:42:58.360Z,98242.16
2023-05-01T00:45:30.331Z,98231.63
2023-05-01T00:48:03.387Z,98232.25
2023-05-01T00:50:35.406Z,98227.03
2023-05-01T00:53:08.509Z,98229.06
2023-05-01T00:55:42.947Z,98228.50
2023-05-01T00:58:19.026Z,98226.44
2023-05-01T01:00:52.197Z,98223.28
2023-05-01T01:03:24.854Z,98219.97
2023-05-01T01:06:13.552Z,98219.97
2023-05-01T01:09:01.171Z,98209.44
2023-05-01T01:12:01.493Z,98216.66
2023-05-01T01:14:55.619Z,98214.19
2023-05-01T01:17:37.983Z,98202.91
2023-05-01T01:20:42.716Z,98207.69
2023-05-01T01:24:03.803Z,98200.38
2023-05-01T01:27:24.326Z,98189.16
2023-05-01T01:30:23.668Z,98191.75
2023-05-01T01:33:25.566Z,98183.31
2023-05-01T01:36:03.424Z,98181.25
2023-05-01T01:38:46.642Z,98189.88
2023-05-01T01:41:28.009Z,98186.69
2023-05-01T01:44:34.154Z,98190.59
2023-05-01T01:47:11.113Z,98189.28
2023-05-01T01:49:49.893Z,98188.66
2023-05-01T01:52:24.518Z,98181.41
2023-05-01T01:55:05.206Z,98181.41
2023-05-01T01:57:40.391Z,98183.44
2023-05-01T02:00:16.839Z,98182.84
2023-05-01T02:02:53.817Z,98174.91
2023-05-01T02:05:28.496Z,98172.91
2023-05-01T02:08:02.178Z,98174.13
2023-05-01T02:10:36.986Z,98178.78
2023-05-01T02:13:12.273Z,98171.50
2023-05-01T02:15:46.302Z,98172.84
2023-05-01T02:18:18.824Z,98174.84
2023-05-01T02:20:52.725Z,98167.50
2023-05-01T02:23:26.692Z,98173.47
2023-05-01T02:26:03.240Z,98174.94
2023-05-01T02:28:37.354Z,98169.03
2023-05-01T02:31:10.752Z,98179.66
2023-05-01T02:33:42.727Z,98177.06
2023-05-01T02:36:15.961Z,98183.06
2023-05-01T02:38:50.941Z,98171.22
2023-05-01T02:41:25.930Z,98175.78
2023-05-01T02:44:04.367Z,98176.94
2023-05-01T02:46:38.569Z,98178.25
2023-05-01T02:49:11.861Z,98175.69
2023-05-01T02:51:46.345Z,98183.72
2023-05-01T02:54:19.239Z,98184.38
2023-05-01T02:56:52.901Z,98176.47
2023-05-01T02:59:25.001Z,98173.13
2023-05-01T03:01:58.582Z,98180.41
2023-05-01T03:04:30.860Z,98171.84
2023-05-01T03:07:05.082Z,98173.09
2023-05-01T03:09:38.168Z,98169.78
2023-05-01T03:12:10.549Z,98164.34
2023-05-01T03:14:42.486Z,98163.53
2023-05-01T03:17:15.584Z,98160.41
2023-05-01T03:19:49.554Z,98165.09
2023-05-01T03:22:22.811Z,98158.59
2023-05-01T03:24:56.078Z,98165.78
2023-05-01T03:27:28.768Z,98160.41
2023-05-01T03:30:00.706Z,98163.72
2023-05-01T03:32:37.700Z,98160.28
2023-05-01T03:35:11.621Z,98160.50
2023-05-01T03:37:44.394Z,98159.84
2023-05-01T03:40:21.285Z,98162.50
2023-05-01T03:43:16.953Z,98158.53
2023-05-01T03:45:50.280Z,98160.53
2023-05-01T03:48:22.843Z,98166.09
2023-05-01T03:50:57.771Z,98172.78
2023-05-01T03:53:30.132Z,98168.16
2023-05-01T03:56:05.042Z,98161.44
2023-05-01T03:58:37.206Z,98164.13
2023-05-01T04:01:10.513Z,98170.69
2023-05-01T04:03:48.764Z,98174.66
2023-05-01T04:06:20.980Z,98175.16
2023-05-01T04:08:53.724Z,98172.56
2023-05-01T04:11:25.613Z,98174.53
2023-05-01T04:13:58.895Z,98171.91
2023-05-01T04:16:31.055Z,98175.19
2023-05-01T04:19:03.900Z,98179.22
2023-05-01T04:21:39.639Z,98165.97
2023-05-01T04:24:11.926Z,98182.41
2023-05-01T04:26:45.084Z,98183.84
2023-05-01T04:29:17.492Z,98181.25
2023-05-01T04:31:50.250Z,98180.53
2023-05-01T04:34:22.840Z,98180.44
2023-05-01T04:36:57.622Z,98179.75
2023-05-01T04:39:29.941Z,98186.34
2023-05-01T04:42:04.301Z,98185.66
2023-05-01T04:44:37.690Z,98185.00
2023-05-01T04:47:09.917Z,98187.03
2023-05-01T04:49:42.815Z,98190.28
2023-05-01T04:52:14.823Z,98196.22
2023-05-01T04:55:01.178Z,98197.59
2023-05-01T04:57:37.051Z,98197.63
2023-05-01T05:00:12.879Z,98190.94
2023-05-01T05:02:55.566Z,98196.22
2023-05-01T05:05:28.572Z,98198.78
2023-05-01T05:08:02.796Z,98202.09
2023-05-01T05:10:44.925Z,98204.03
2023-05-01T05:13:30.683Z,98203.31
2023-05-01T05:16:08.770Z,98204.03
2023-05-01T05:18:41.708Z,98210.03
2023-05-01T05:21:13.774Z,98210.00
2023-05-01T05:23:52.663Z,98219.31
2023-05-01T05:26:26.947Z,98217.19
2023-05-01T05:29:03.669Z,98209.84
2023-05-01T05:31:36.619Z,98214.41
2023-05-01T05:34:09.150Z,98221.16
2023-05-01T05:36:41.682Z,98221.81
2023-05-01T05:39:14.040Z,98225.25
2023-05-01T05:41:47.423Z,98227.22
2023-05-01T05:44:21.646Z,98227.28
2023-05-01T05:46:53.878Z,98227.88
2023-05-01T05:49:34.400Z,98234.56
2023-05-01T05:52:06.903Z,98231.69
2023-05-01T05:54:38.811Z,98233.84
2023-05-01T05:57:12.256Z,98230.63
2023-05-01T05:59:48.632Z,98229.94
2023-05-01T06:02:25.523Z,98232.59
2023-05-01T06:04:57.879Z,98230.66
2023-05-01T06:07:33.520Z,98232.56
2023-05-01T06:10:08.131Z,98233.25
2023-05-01T06:12:44.528Z,98232.50
2023-05-01T06:15:26.339Z,98231.78
2023-05-01T06:17:59.932Z,98223.16
2023-05-01T06:20:32.788Z,98221.81
2023-05-01T06:23:04.739Z,98237.31
2023-05-01T06:25:57.729Z,98230.88
2023-05-01T06:28:30.076Z,98238.75
2023-05-01T06:31:02.363Z,98230.19
2023-05-01T06:33:39.447Z,98230.16
2023-05-01T06:36:26.495Z,98230.84
2023-05-01T06:38:58.909Z,98233.38
2023-05-01T06:41:32.512Z,98226.69
2023-05-01T06:44:05.957Z,98229.28
2023-05-01T06:46:38.296Z,98238.53
2023-05-01T06:49:10.533Z,98232.38
2023-05-01T06:51:42.864Z,98234.94
2023-05-01T06:54:17.647Z,98246.59
2023-05-01T06:56:50.686Z,98255.16
2023-05-01T06:59:23.060Z,98262.09
2023-05-01T07:01:55.347Z,98261.47
2023-05-01T07:04:28.107Z,98256.81
2023-05-01T07:07:01.403Z,98265.44
2023-05-01T07:09:33.639Z,98264.81
2023-05-01T07:12:07.166Z,98268.50
2023-05-01T07:14:39.447Z,98272.50
2023-05-01T07:17:11.491Z,98278.63
2023-05-01T07:19:43.768Z,98276.88
2023-05-01T07:22:16.132Z,98271.59
2023-05-01T07:24:48.821Z,98269.00
2023-05-01T07:27:21.521Z,98276.31
2023-05-01T07:29:55.950Z,98276.97
2023-05-01T07:32:28.475Z,98271.69
2023-05-01T07:35:01.194Z,98274.38
2023-05-01T07:37:33.823Z,98268.38
2023-05-01T07:40:07.329Z,98273.56
2023-05-01T07:42:40.983Z,98276.09
2023-05-01T07:45:13.362Z,98271.56
2023-05-01T07:47:45.831Z,98269.00
2023-05-01T07:50:18.375Z,98268.44
2023-05-01T07:52:51.143Z,98271.03
2023-05-01T07:55:24.734Z,98269.66
2023-05-01T07:57:56.711Z,98267.00
2023-05-01T08:00:29.900Z,98270.88
2023-05-01T08:03:02.447Z,98268.19
2023-05-01T08:05:35.379Z,98270.88
2023-05-01T08:08:07.249Z,98272.78
2023-05-01T08:10:39.978Z,98270.91
2023-05-01T08:13:12.476Z,98266.97
2023-05-01T08:15:48.164Z,98271.50
2023-05-01T08:18:21.086Z,98267.50
2023-05-01T08:23:48.163Z,98268.31
2023-05-01T08:26:22.558Z,98266.97
2023-05-01T08:28:55.146Z,98277.53
2023-05-01T08:31:27.512Z,98275.41
2023-05-01T08:33:59.807Z,98266.59
2023-05-01T08:36:34.968Z,98268.50
2023-05-01T08:39:07.436Z,98271.94
2023-05-01T08:41:40.831Z,98275.91
2023-05-01T08:44:16.773Z,98267.72
2023-05-01T08:47:12.774Z,98266.94
2023-05-01T08:49:47.621Z,98273.44
2023-05-01T08:52:22.200Z,98265.56
2023-05-01T08:54:57.759Z,98267.13
2023-05-01T08:57:31.833Z,98263.50
2023-05-01T09:00:06.426Z,98264.09
2023-05-01T09:03:04.476Z,98271.03
2023-05-01T09:05:37.288Z,98269.06
2023-05-01T09:08:09.931Z,98268.03
2023-05-01T09:10:46.408Z,98265.00
2023-05-01T09:13:19.921Z,98265.31
2023-05-01T09:15:52.733Z,98249.47
2023-05-01T09:18:25.765Z,98247.16
2023-05-01T09:20:58.776Z,98254.41
2023-05-01T09:23:32.169Z,98263.03
2023-05-01T09:26:10.609Z,98255.25
2023-05-01T09:28:45.751Z,98262.25
2023-05-01T09:31:23.814Z,98255.56
2023-05-01T09:34:02.290Z,98255.59
2023-05-01T09:36:35.170Z,98260.47
2023-05-01T09:39:07.743Z,98263.19
2023-05-01T09:41:52.817Z,98261.09
2023-05-01T09:44:25.571Z,98257.56
2023-05-01T09:46:58.788Z,98260.88
2023-05-01T09:49:48.323Z,98253.59
2023-05-01T09:52:23.745Z,98249.47
2023-05-01T09:55:17.048Z,98255.44
2023-05-01T09:57:52.615Z,98248.69
2023-05-01T10:00:25.259Z,98251.78
2023-05-01T10:02:58.244Z,98254.31
2023-05-01T10:05:44.779Z,98241.13
2023-05-01T10:08:17.160Z,98248.69
2023-05-01T10:11:05.617Z,98247.59
2023-05-01T10:13:37.904Z,98247.13
2023-05-01T10:16:30.442Z,98244.94
2023-05-01T10:19:04.772Z,98242.97
2023-05-01T10:21:37.269Z,98246.28
2023-05-01T10:24:11.448Z,98245.06
2023-05-01T10:26:43.704Z,98247.72
2023-05-01T10:29:16.408Z,98247.34
2023-05-01T10:31:48.977Z,98240.94
2023-05-01T10:34:26.147Z,98237.88
2023-05-01T10:37:07.214Z,98233.84
2023-05-01T10:39:39.802Z,98236.75
2023-05-01T10:42:16.001Z,98241.19
2023-05-01T10:44:49.540Z,98234.16
2023-05-01T10:47:28.707Z,98232.09
2023-05-01T10:50:11.040Z,98230.06
2023-05-01T10:53:12.090Z,98225.59
2023-05-01T10:55:46.192Z,98222.34
2023-05-01T10:58:37.704Z,98226.75
2023-05-01T11:01:29.986Z,98230.50
2023-05-01T11:07:18.864Z,98224.00
2023-05-01T11:09:55.914Z,98223.63
2023-05-01T11:12:46.979Z,98217.00
2023-05-01T11:15:30.970Z,98218.34
2023-05-01T11:20:57.479Z,98206.72
2023-05-01T11:23:29.781Z,98205.63
2023-05-01T11:26:04.865Z,98202.09
2023-05-01T11:28:39.838Z,98206.25
2023-05-01T11:31:18.484Z,98201.34
2023-05-01T11:33:51.431Z,98198.03
2023-05-01T11:36:23.523Z,98190.97
2023-05-01T11:39:00.054Z,98190.75
2023-05-01T11:41:32.480Z,98203.22
2023-05-01T11:44:05.686Z,98198.97
2023-05-01T11:46:38.563Z,98180.13
2023-05-01T11:49:12.376Z,98190.56
2023-05-01T11:51:45.501Z,98181.91
2023-05-01T11:54:18.050Z,98181.59
2023-05-01T11:57:02.305Z,98179.31
2023-05-01T11:59:34.258Z,98169.69
2023-05-01T12:02:20.919Z,98169.34
2023-05-01T12:04:53.986Z,98163.56
2023-05-01T12:07:26.514Z,98163.69
2023-05-01T12:09:58.473Z,98162.88
2023-05-01T12:12:31.615Z,98168.81
2023-05-01T12:15:04.645Z,98171.28
2023-05-01T12:17:37.870Z,98168.13
2023-05-01T12:20:10.844Z,98172.34
2023-05-01T12:22:50.534Z,98172.03
2023-05-01T12:25:30.483Z,98173.31
2023-05-01T12:28:10.157Z,98184.75
2023-05-01T12:30:44.826Z,98186.25
2023-05-01T12:33:20.208Z,98179.09
2023-05-01T12:35:52.986Z,98187.13
2023-05-01T12:39:02.956Z,98183.81
2023-05-01T12:41:41.237Z,98191.94
2023-05-01T12:44:24.900Z,98188.06
2023-05-01T12:47:06.641Z,98188.97
2023-05-01T12:49:40.586Z,98194.34
2023-05-01T12:52:12.955Z,98190.50
2023-05-01T12:54:45.981Z,98194.63
2023-05-01T12:57:18.285Z,98191.28
2023-05-01T13:00:05.781Z,98196.41
2023-05-01T13:02:38.432Z,98187.66
2023-05-01T13:05:12.561Z,98200.06
2023-05-01T13:07:49.639Z,98191.75
2023-05-01T13:10:32.024Z,98189.69
2023-05-01T13:13:05.956Z,98192.91
2023-05-01T13:15:38.696Z,98195.56
2023-05-01T13:18:11.049Z,98193.91
2023-05-01T13:20:44.428Z,98194.84
2023-05-01T13:23:17.634Z,98187.34
2023-05-01T13:25:57.429Z,98197.41
2023-05-01T13:28:31.918Z,98190.25
2023-05-01T13:31:11.026Z,98191.34
2023-05-01T13:33:44.576Z,98187.19
2023-05-01T13:36:25.360Z,98187.31
2023-05-01T13:38:59.844Z,98193.50
2023-05-01T13:41:33.723Z,98186.66
2023-05-01T13:44:07.404Z,98182.41
2023-05-01T13:46:44.771Z,98187.78
2023-05-01T13:49:22.145Z,98188.97
2023-05-01T13:51:55.495Z,98182.72
2023-05-01T13:54:28.438Z,98175.59
2023-05-01T13:57:01.801Z,98174.50
2023-05-01T13:59:41.992Z,98176.31
2023-05-01T14:02:25.463Z,98168.66
2023-05-01T14:05:00.106Z,98169.69
2023-05-01T14:07:33.520Z,98164.63
2023-05-01T14:10:09.844Z,98173.22
2023-05-01T14:12:43.181Z,98162.22
2023-05-01T14:15:15.783Z,98158.91
2023-05-01T14:17:50.512Z,98166.25
2023-05-01T14:20:25.878Z,98150.47
2023-05-01T14:23:00.045Z,98151.94
2023-05-01T14:25:35.126Z,98154.28
2023-05-01T14:28:08.609Z,98145.50
2023-05-01T14:30:41.565Z,98141.31
2023-05-01T14:33:14.915Z,98145.69
2023-05-01T14:35:53.971Z,98142.78
2023-05-01T14:38:27.935Z,98146.78
2023-05-01T14:41:01.054Z,98141.78
2023-05-01T14:43:34.111Z,98143.22
2023-05-01T14:46:07.296Z,98153.75
2023-05-01T14:48:42.455Z,98139.88
2023-05-01T14:51:20.157Z,98150.19
2023-05-01T14:53:53.047Z,98144.47
2023-05-01T14:56:25.574Z,98146.75
2023-05-01T14:58:57.988Z,98137.50
2023-05-01T15:01:30.101Z,98139.63
2023-05-01T15:04:04.025Z,98142.13
2023-05-01T15:06:37.139Z,98137.53
2023-05-01T15:09:10.263Z,98138.22
2023-05-01T15:11:42.792Z,98147.22
2023-05-01T15:14:16.319Z,98149.75
2023-05-01T15:16:48.751Z,98142.88
2023-05-01T15:19:22.871Z,98146.56
2023-05-01T15:21:55.187Z,98144.88
2023-05-01T15:24:27.092Z,98154.19
2023-05-01T15:27:00.220Z,98160.41
2023-05-01T15:29:32.524Z,98164.44
2023-05-01T15:32:11.864Z,98167.19
2023-05-01T15:34:44.407Z,98165.91
2023-05-01T15:37:17.908Z,98165.91
2023-05-01T15:39:53.157Z,98170.44
2023-05-01T15:42:27.572Z,98170.81
2023-05-01T15:45:00.444Z,98175.72
2023-05-01T15:47:55.303Z,98178.34
2023-05-01T15:50:27.780Z,98164.72
2023-05-01T15:52:59.726Z,98182.72
2023-05-01T15:55:32.878Z,98177.50
2023-05-01T15:58:05.610Z,98173.13
2023-05-01T16:00:39.599Z,98178.31
2023-05-01T16:03:12.751Z,98177.28
2023-05-01T16:05:49.201Z,98187.19
2023-05-01T16:08:22.233Z,98192.47
2023-05-01T16:10:55.141Z,98193.97
2023-05-01T16:13:28.007Z,98200.31
2023-05-01T16:16:02.075Z,98186.84
2023-05-01T16:18:35.062Z,98193.06
2023-05-01T16:21:10.261Z,98198.19
2023-05-01T16:26:35.876Z,98211.34
2023-05-01T16:29:09.046Z,98214.00
2023-05-01T16:31:48.060Z,98225.75
2023-05-01T16:34:25.413Z,98229.34
2023-05-01T16:37:01.241Z,98235.97
2023-05-01T16:39:38.411Z,98245.47
2023-05-01T16:42:13.712Z,98240.81
2023-05-01T16:44:45.752Z,98250.34
2023-05-01T16:47:18.640Z,98254.91
2023-05-01T16:49:52.266Z,98245.16
2023-05-01T16:52:25.414Z,98258.34
2023-05-01T16:54:59.385Z,98261.97
2023-05-01T16:57:31.872Z,98268.50
2023-05-01T17:00:05.331Z,98265.47
2023-05-01T17:02:40.027Z,98268.34
2023-05-01T17:08:06.208Z,98256.13
2023-05-01T17:10:39.535Z,98263.56
2023-05-01T17:13:17.639Z,98260.09
2023-05-01T17:15:50.332Z,98261.69
2023-05-01T17:18:23.078Z,98264.28
2023-05-01T17:20:55.778Z,98270.19
2023-05-01T17:23:29.322Z,98267.38
2023-05-01T17:26:02.147Z,98275.22
2023-05-01T17:28:34.863Z,98270.56
2023-05-01T17:31:08.655Z,98270.97
2023-05-01T17:33:41.317Z,98278.84
2023-05-01T17:36:13.786Z,98279.22
2023-05-01T17:38:46.125Z,98287.13
2023-05-01T17:41:19.209Z,98285.56
2023-05-01T17:43:51.279Z,98285.75
2023-05-01T17:46:24.071Z,98285.91
2023-05-01T17:48:57.207Z,98291.72
2023-05-01T17:51:30.116Z,98301.13
2023-05-01T17:54:02.186Z,98296.69
2023-05-01T17:56:35.109Z,98300.78
2023-05-01T17:59:07.577Z,98310.78
2023-05-01T18:01:43.404Z,98313.28
2023-05-01T18:04:16.737Z,98314.91
2023-05-01T18:06:49.572Z,98325.25
2023-05-01T18:09:22.654Z,98322.09
2023-05-01T18:11:55.476Z,98322.19
2023-05-01T18:14:27.861Z,98326.84
2023-05-01T18:17:00.787Z,98328.03
2023-05-01T18:19:33.140Z,98330.19
2023-05-01T18:22:06.364Z,98337.91
2023-05-01T18:24:38.688Z,98343.66
2023-05-01T18:27:12.588Z,98335.09
2023-05-01T18:29:45.282Z,98334.06
2023-05-01T18:32:17.610Z,98342.50
2023-05-01T18:34:52.369Z,98339.47
2023-05-01T18:37:25.879Z,98343.03
2023-05-01T18:39:59.272Z,98342.31
2023-05-01T18:42:34.738Z,98349.84
2023-05-01T18:45:08.008Z,98353.91
2023-05-01T18:47:41.111Z,98356.59
2023-05-01T18:50:13.158Z,98356.63
2023-05-01T18:52:46.037Z,98347.22
2023-05-01T18:55:19.708Z,98366.34
2023-05-01T18:57:52.341Z,98369.06
2023-05-01T19:00:26.357Z,98368.19
2023-05-01T19:02:59.835Z,98373.25
2023-05-01T19:05:32.578Z,98383.22
2023-05-01T19:08:07.436Z,98385.94
2023-05-01T19:10:39.472Z,98392.69
2023-05-01T19:13:12.429Z,98400.69
2023-05-01T19:15:44.820Z,98405.50
2023-05-01T19:18:16.828Z,98414.19
2023-05-01T19:20:50.094Z,98416.88
2023-05-01T19:23:22.417Z,98418.81
2023-05-01T19:25:55.474Z,98418.69
2023-05-01T19:28:28.988Z,98419.06
2023-05-01T19:31:01.229Z,98425.88
2023-05-01T19:33:34.216Z,98423.97
2023-05-01T19:36:06.518Z,98427.28
2023-05-01T19:38:40.154Z,98438.53
2023-05-01T19:41:13.645Z,98434.69
2023-05-01T19:43:46.378Z,98443.16
2023-05-01T19:46:19.133Z,98441.25
2023-05-01T19:48:52.686Z,98436.59
2023-05-01T19:51:25.010Z,98445.22
2023-05-01T19:53:57.382Z,98444.59
2023-05-01T19:56:29.988Z,98457.88
2023-05-01T19:59:02.991Z,98456.56
2023-05-01T20:01:36.762Z,98464.47
2023-05-01T20:04:10.143Z,98460.53
2023-05-01T20:06:42.172Z,98461.25
2023-05-01T20:09:14.930Z,98469.88
2023-05-01T20:11:46.812Z,98471.84
2023-05-01T20:14:19.760Z,98467.31
2023-05-01T20:16:55.990Z,98472.63
2023-05-01T20:19:28.868Z,98478.59
2023-05-01T20:22:01.635Z,98476.59
2023-05-01T20:24:33.515Z,98489.22
2023-05-01T20:27:06.937Z,98483.94
2023-05-01T20:29:39.998Z,98492.44
2023-05-01T20:32:12.740Z,98492.44
2023-05-01T20:34:44.999Z,98493.72
2023-05-01T20:37:17.743Z,98495.16
2023-05-01T20:39:49.673Z,98503.19
2023-05-01T20:42:23.757Z,98501.91
2023-05-01T20:44:55.712Z,98500.63
2023-05-01T20:47:28.518Z,98496.06
2023-05-01T20:50:00.772Z,98500.72
2023-05-01T20:52:34.650Z,98505.31
2023-05-01T20:55:07.197Z,98501.41
2023-05-01T20:57:40.554Z,98513.31
2023-05-01T21:00:13.274Z,98510.06
2023-05-01T21:02:46.098Z,98509.44
2023-05-01T21:05:18.081Z,98513.44
2023-05-01T21:07:50.841Z,98514.13
2023-05-01T21:10:22.823Z,98523.38
2023-05-01T21:12:56.641Z,98522.13
2023-05-01T21:15:31.107Z,98517.50
2023-05-01T21:18:03.492Z,98515.50
2023-05-01T21:20:35.469Z,98518.13
2023-05-01T21:23:08.704Z,98526.72
2023-05-01T21:25:40.836Z,98523.38
2023-05-01T21:28:14.873Z,98521.38
2023-05-01T21:30:49.335Z,98524.66
2023-05-01T21:33:22.129Z,98518.13
2023-05-01T21:35:54.060Z,98524.75
2023-05-01T21:38:27.288Z,98523.44
2023-05-01T21:40:59.121Z,98524.13
2023-05-01T21:43:35.360Z,98527.41
2023-05-01T21:46:15.724Z,98525.47
2023-05-01T21:48:54.324Z,98524.13
2023-05-01T21:51:31.794Z,98525.47
2023-05-01T21:56:38.000Z,98541.34
2023-05-01T21:59:11.292Z,98538.00
2023-05-01T22:01:45.056Z,98542.66
2023-05-01T22:04:18.409Z,98546.63
2023-05-01T22:06:51.397Z,98543.97
2023-05-01T22:09:24.114Z,98550.59
2023-05-01T22:11:58.691Z,98553.91
2023-05-01T22:14:53.269Z,98548.66
2023-05-01T22:17:27.148Z,98555.91
2023-05-01T22:19:59.263Z,98549.28
2023-05-01T22:22:32.242Z,98549.97
2023-05-01T22:25:05.079Z,98545.38
2023-05-01T22:27:39.011Z,98548.00
2023-05-01T22:30:12.167Z,98546.03
2023-05-01T22:32:44.056Z,98548.00
2023-05-01T22:35:16.898Z,98552.66
2023-05-01T22:37:49.200Z,98553.97
2023-05-01T22:40:22.773Z,98561.25
2023-05-01T22:42:55.071Z,98565.84
2023-05-01T22:45:27.228Z,98561.22
2023-05-01T22:48:00.027Z,98563.22
2023-05-01T22:50:32.346Z,98567.19
2023-05-01T22:53:05.183Z,98561.22
2023-05-01T22:55:38.115Z,98569.16
2023-05-01T22:58:10.438Z,98565.84
2023-05-01T23:00:42.342Z,98574.44
2023-05-01T23:03:15.830Z,98574.44
2023-05-01T23:05:48.762Z,98575.78
2023-05-01T23:08:21.530Z,98578.41
2023-05-01T23:10:53.477Z,98575.75
2023-05-01T23:13:27.672Z,98577.06
2023-05-01T23:16:00.173Z,98573.13
2023-05-01T23:18:33.259Z,98581.03
2023-05-01T23:21:06.044Z,98585.00
2023-05-01T23:23:45.216Z,98592.25
2023-05-01T23:26:25.927Z,98583.69
2023-05-01T23:29:00.319Z,98585.00
2023-05-01T23:31:33.160Z,98585.66
2023-05-01T23:34:05.101Z,98583.03
2023-05-01T23:36:38.351Z,98589.63
2023-05-01T23:39:10.693Z,98585.03
2023-05-01T23:41:43.717Z,98587.66
2023-05-01T23:44:15.890Z,98574.47
2023-05-01T23:46:49.155Z,98575.75
2023-05-01T23:49:21.056Z,98579.75
2023-05-01T23:51:53.749Z,98573.13
2023-05-01T23:54:25.920Z,98575.78
2023-05-01T23:56:58.903Z,98567.81
2023-05-01T23:59:32.179Z,98583.03
